Time;durP1;ratioP1;P1;durP2;ratioP2;P2;SDS_P1;SDS_P2;PMS_P1;PMS_P2;Temp;Humidity;BMP_temperature;BMP_pressure;BME280_temperature;BME280_humidity;BME280_pressure;Samples;Min_cycle;Max_cycle;Signal;HPM_P1;HPM_P2
2022/07/11 00:01:44;;;;;;;;;;;11.00;97.60;;;;;;5015554;28;19905;-65
2022/07/11 00:04:10;;;;;;;;;;;11.00;97.70;;;;;;5015068;28;20355;-65
2022/07/11 00:06:37;;;;;;;;;;;11.10;97.80;;;;;;5015193;28;19960;-65
2022/07/11 00:09:04;;;;;;;;;;;11.10;97.90;;;;;;5015118;28;20351;-65
2022/07/11 00:11:30;;;;;;;;;;;11.10;97.90;;;;;;5015528;28;20386;-65
2022/07/11 00:13:57;;;;;;;;;;;11.10;97.90;;;;;;5015029;28;20325;-65
2022/07/11 00:16:23;;;;;;;;;;;11.20;97.90;;;;;;5015018;28;20004;-65
2022/07/11 00:18:50;;;;;;;;;;;11.30;98.00;;;;;;5014887;28;19913;-65
2022/07/11 00:21:16;;;;;;;;;;;11.30;98.00;;;;;;5014821;28;19932;-66
2022/07/11 00:23:43;;;;;;;;;;;11.30;98.10;;;;;;5014947;28;19905;-65
2022/07/11 00:26:10;;;;;;;;;;;11.40;98.10;;;;;;5014984;28;19914;-64
2022/07/11 00:28:36;;;;;;;;;;;11.30;98.10;;;;;;4987574;28;20356;-65
2022/07/11 00:31:03;;;;;;;;;;;11.40;98.00;;;;;;5014830;28;19972;-65
2022/07/11 00:33:29;;;;;;;;;;;11.40;98.10;;;;;;5014432;28;19921;-65
2022/07/11 00:35:56;;;;;;;;;;;11.40;98.10;;;;;;5014459;28;20363;-65
2022/07/11 00:38:23;;;;;;;;;;;11.40;98.10;;;;;;5014491;28;19905;-65
2022/07/11 00:40:49;;;;;;;;;;;11.50;98.20;;;;;;5014630;28;19909;-65
2022/07/11 00:43:19;;;;;;;;;;;11.50;98.20;;;;;;5014586;28;19916;-65
2022/07/11 00:45:48;;;;;;;;;;;11.50;98.20;;;;;;5014261;28;19905;-65
2022/07/11 00:48:14;;;;;;;;;;;11.60;98.20;;;;;;5014360;28;19905;-65
2022/07/11 00:50:41;;;;;;;;;;;11.70;98.30;;;;;;5014381;28;19905;-65
2022/07/11 00:53:08;;;;;;;;;;;11.70;98.30;;;;;;5014465;28;19920;-65
2022/07/11 00:55:34;;;;;;;;;;;11.70;98.20;;;;;;4996794;28;20346;-65
2022/07/11 00:58:01;;;;;;;;;;;11.70;98.30;;;;;;5014722;28;20363;-66
2022/07/11 01:00:27;;;;;;;;;;;11.70;98.20;;;;;;4996895;28;19910;-66
2022/07/11 01:02:54;;;;;;;;;;;11.70;98.30;;;;;;4996937;28;20257;-65
2022/07/11 01:05:20;;;;;;;;;;;11.80;98.30;;;;;;4996623;28;19905;-66
2022/07/11 01:07:47;;;;;;;;;;;11.80;98.30;;;;;;5013068;28;19925;-65
2022/07/11 01:10:13;;;;;;;;;;;11.90;98.30;;;;;;5013987;28;19905;-66
2022/07/11 01:12:40;;;;;;;;;;;11.90;98.30;;;;;;4996504;28;20000;-66
2022/07/11 01:15:10;;;;;;;;;;;11.90;98.30;;;;;;5013926;28;19968;-66
2022/07/11 01:17:36;;;;;;;;;;;12.00;98.30;;;;;;5013857;28;19910;-66
2022/07/11 01:20:03;;;;;;;;;;;12.00;98.30;;;;;;5013629;28;20008;-66
2022/07/11 01:22:30;;;;;;;;;;;12.10;98.30;;;;;;5013751;28;20390;-66
2022/07/11 01:24:56;;;;;;;;;;;12.10;98.30;;;;;;4996276;28;19909;-66
2022/07/11 01:27:23;;;;;;;;;;;12.20;98.30;;;;;;4996319;28;19956;-65
2022/07/11 01:29:49;;;;;;;;;;;12.20;98.30;;;;;;5013538;28;19913;-66
2022/07/11 01:32:19;;;;;;;;;;;12.20;98.20;;;;;;5013710;28;19929;-66
2022/07/11 01:34:45;;;;;;;;;;;12.20;98.20;;;;;;5013232;28;19921;-67
2022/07/11 01:37:12;;;;;;;;;;;12.20;98.20;;;;;;5013720;28;19912;-66
2022/07/11 01:39:38;;;;;;;;;;;12.20;98.20;;;;;;5013383;28;19905;-66
2022/07/11 01:42:05;;;;;;;;;;;12.30;98.20;;;;;;5013442;28;19920;-66
2022/07/11 01:44:32;;;;;;;;;;;12.30;98.20;;;;;;5013531;28;19905;-66
2022/07/11 01:46:58;;;;;;;;;;;12.30;98.20;;;;;;5013169;28;20351;-66
2022/07/11 01:49:29;;;;;;;;;;;12.40;98.20;;;;;;5013127;28;20035;-66
2022/07/11 01:51:56;;;;;;;;;;;12.40;98.20;;;;;;5012767;28;19909;-66
2022/07/11 01:54:22;;;;;;;;;;;12.40;98.20;;;;;;5013282;28;19918;-67
2022/07/11 01:56:49;;;;;;;;;;;12.30;98.20;;;;;;5013282;28;19918;-65
2022/07/11 01:59:16;;;;;;;;;;;12.30;98.10;;;;;;5012919;28;19905;-66
2022/07/11 02:01:43;;;;;;;;;;;12.20;98.20;;;;;;5013276;28;20359;-65
2022/07/11 02:04:09;;;;;;;;;;;12.10;98.10;;;;;;5012885;28;19928;-64
2022/07/11 02:06:36;;;;;;;;;;;12.10;98.20;;;;;;5013114;28;20020;-64
2022/07/11 02:09:02;;;;;;;;;;;12.00;98.20;;;;;;5012597;28;19921;-64
2022/07/11 02:11:29;;;;;;;;;;;12.00;98.20;;;;;;5012651;28;20003;-65
2022/07/11 02:13:56;;;;;;;;;;;12.00;98.30;;;;;;5012628;28;19921;-64
2022/07/11 02:16:23;;;;;;;;;;;12.00;98.30;;;;;;5012921;28;20355;-64
2022/07/11 02:18:49;;;;;;;;;;;12.00;98.40;;;;;;4995122;28;20398;-65
2022/07/11 02:21:16;;;;;;;;;;;12.10;98.40;;;;;;5012839;28;19905;-64
2022/07/11 02:23:42;;;;;;;;;;;12.10;98.40;;;;;;5012802;28;19956;-64
2022/07/11 02:26:09;;;;;;;;;;;12.10;98.50;;;;;;5012691;28;20000;-64
2022/07/11 02:28:36;;;;;;;;;;;12.20;98.50;;;;;;5012607;28;19909;-64
2022/07/11 02:31:03;;;;;;;;;;;12.20;98.50;;;;;;5012646;28;20008;-64
2022/07/11 02:33:30;;;;;;;;;;;12.20;98.50;;;;;;5012560;28;19957;-64
2022/07/11 02:35:56;;;;;;;;;;;12.20;98.50;;;;;;5012677;28;19991;-65
2022/07/11 02:38:23;;;;;;;;;;;12.20;98.60;;;;;;5012950;28;19905;-65
2022/07/11 02:40:50;;;;;;;;;;;12.30;98.60;;;;;;5012063;28;19964;-64
2022/07/11 02:43:16;;;;;;;;;;;12.30;98.60;;;;;;5012244;28;19913;-65
2022/07/11 02:45:43;;;;;;;;;;;12.30;98.60;;;;;;5012446;28;19905;-65
2022/07/11 02:48:09;;;;;;;;;;;12.30;98.60;;;;;;5012692;28;19988;-65
2022/07/11 02:50:36;;;;;;;;;;;12.40;98.60;;;;;;5012429;28;19913;-65
2022/07/11 02:53:03;;;;;;;;;;;12.40;98.70;;;;;;5012377;28;19967;-65
2022/07/11 02:55:29;;;;;;;;;;;12.50;98.70;;;;;;4994755;28;19913;-65
2022/07/11 02:57:56;;;;;;;;;;;12.50;98.70;;;;;;5012548;28;19902;-65
2022/07/11 03:00:22;;;;;;;;;;;12.50;98.70;;;;;;4994672;28;19920;-65
2022/07/11 03:02:49;;;;;;;;;;;12.60;98.70;;;;;;5012303;28;19924;-65
2022/07/11 03:05:15;;;;;;;;;;;12.50;98.60;;;;;;5012361;28;20341;-64
2022/07/11 03:07:42;;;;;;;;;;;12.50;98.60;;;;;;5012220;28;20125;-65
2022/07/11 03:10:09;;;;;;;;;;;12.60;98.70;;;;;;4994723;28;19905;-65
2022/07/11 03:12:36;;;;;;;;;;;12.70;98.70;;;;;;5012213;28;19906;-65
2022/07/11 03:15:02;;;;;;;;;;;12.70;98.70;;;;;;5012201;28;19935;-66
2022/07/11 03:17:29;;;;;;;;;;;12.70;98.60;;;;;;5012068;28;19909;-65
2022/07/11 03:19:56;;;;;;;;;;;12.70;98.50;;;;;;5012056;28;19914;-66
2022/07/11 03:22:23;;;;;;;;;;;12.80;98.50;;;;;;5012292;28;20314;-66
2022/07/11 03:24:52;;;;;;;;;;;12.80;98.30;;;;;;5011998;28;20397;-66
2022/07/11 03:27:18;;;;;;;;;;;12.90;98.30;;;;;;5012242;28;19959;-66
2022/07/11 03:29:45;;;;;;;;;;;13.00;98.30;;;;;;5011922;28;19912;-66
2022/07/11 03:32:12;;;;;;;;;;;12.90;98.20;;;;;;5014827;28;19905;-66
2022/07/11 03:34:38;;;;;;;;;;;12.80;97.90;;;;;;5015690;28;19917;-66
2022/07/11 03:37:05;;;;;;;;;;;12.70;97.40;;;;;;5015426;28;19955;-66
2022/07/11 03:39:32;;;;;;;;;;;12.70;97.20;;;;;;5015826;28;20011;-65
2022/07/11 03:41:58;;;;;;;;;;;12.60;97.00;;;;;;5015950;28;19916;-66
2022/07/11 03:44:25;;;;;;;;;;;12.60;97.10;;;;;;5016058;28;19909;-66
2022/07/11 03:46:51;;;;;;;;;;;12.60;96.90;;;;;;5015402;28;19955;-66
2022/07/11 03:49:18;;;;;;;;;;;12.60;96.60;;;;;;5015751;28;19912;-65
2022/07/11 03:51:44;;;;;;;;;;;12.60;96.30;;;;;;5015426;28;19905;-65
2022/07/11 03:54:11;;;;;;;;;;;12.60;96.30;;;;;;5015516;28;19913;-66
2022/07/11 03:56:37;;;;;;;;;;;12.70;96.70;;;;;;5015651;28;19910;-66
2022/07/11 03:59:04;;;;;;;;;;;12.70;96.70;;;;;;5015307;28;20282;-66
2022/07/11 04:01:31;;;;;;;;;;;12.70;96.70;;;;;;5015588;28;20026;-66
2022/07/11 04:03:57;;;;;;;;;;;12.70;96.80;;;;;;5015513;28;20355;-66
2022/07/11 04:06:24;;;;;;;;;;;12.70;96.80;;;;;;5015269;28;19910;-67
2022/07/11 04:08:50;;;;;;;;;;;12.70;96.90;;;;;;5015131;28;20007;-66
2022/07/11 04:11:17;;;;;;;;;;;12.70;97.10;;;;;;5015441;28;20316;-66
2022/07/11 04:13:43;;;;;;;;;;;12.70;97.10;;;;;;5015216;28;20016;-66
2022/07/11 04:16:10;;;;;;;;;;;12.70;97.00;;;;;;5015050;28;19905;-66
2022/07/11 04:18:37;;;;;;;;;;;12.70;96.70;;;;;;5015113;28;20870;-66
2022/07/11 04:21:03;;;;;;;;;;;12.70;96.50;;;;;;5015053;28;19941;-66
2022/07/11 04:23:30;;;;;;;;;;;12.70;96.70;;;;;;5015063;28;19917;-66
2022/07/11 04:25:56;;;;;;;;;;;12.60;95.90;;;;;;5015244;28;19997;-66
2022/07/11 04:28:23;;;;;;;;;;;12.60;96.20;;;;;;4997235;28;19909;-66
2022/07/11 04:30:49;;;;;;;;;;;12.60;95.90;;;;;;5014634;28;20272;-66
2022/07/11 04:33:16;;;;;;;;;;;12.60;96.20;;;;;;5014479;28;19913;-66
2022/07/11 04:35:43;;;;;;;;;;;12.70;96.30;;;;;;5014912;28;19959;-66
2022/07/11 04:38:09;;;;;;;;;;;12.70;96.50;;;;;;5014426;28;20288;-66
2022/07/11 04:40:36;;;;;;;;;;;12.70;96.70;;;;;;5014767;28;20032;-66
2022/07/11 04:43:02;;;;;;;;;;;12.70;96.80;;;;;;5014711;28;20322;-66
2022/07/11 04:45:29;;;;;;;;;;;12.70;96.90;;;;;;5014406;28;19906;-66
2022/07/11 04:47:56;;;;;;;;;;;12.70;96.90;;;;;;5014187;28;19916;-66
2022/07/11 04:50:22;;;;;;;;;;;12.70;96.80;;;;;;5006365;28;19913;-66
2022/07/11 04:52:49;;;;;;;;;;;12.70;96.80;;;;;;4974204;28;20289;-66
2022/07/11 04:55:17;;;;;;;;;;;12.70;96.80;;;;;;5005879;28;19913;-66
2022/07/11 04:57:44;;;;;;;;;;;12.70;96.80;;;;;;4992031;28;20007;-67
2022/07/11 05:00:11;;;;;;;;;;;12.70;96.90;;;;;;4992800;28;19910;-67
2022/07/11 05:02:37;;;;;;;;;;;12.70;97.00;;;;;;4981508;28;19905;-67
2022/07/11 05:05:04;;;;;;;;;;;12.70;97.10;;;;;;4996359;28;19909;-66
2022/07/11 05:07:31;;;;;;;;;;;12.70;97.10;;;;;;5009550;28;19917;-66
2022/07/11 05:09:57;;;;;;;;;;;12.80;97.20;;;;;;5011447;28;19909;-66
2022/07/11 05:12:24;;;;;;;;;;;12.80;97.30;;;;;;5011402;28;20512;-65
2022/07/11 05:14:51;;;;;;;;;;;12.80;97.30;;;;;;5006389;28;19922;-66
2022/07/11 05:17:17;;;;;;;;;;;12.80;97.30;;;;;;5006182;28;19932;-65
2022/07/11 05:19:44;;;;;;;;;;;12.80;97.40;;;;;;4996616;28;19909;-66
2022/07/11 05:22:11;;;;;;;;;;;12.80;97.50;;;;;;4995547;28;20009;-65
2022/07/11 05:24:37;;;;;;;;;;;12.80;97.50;;;;;;4994321;28;19918;-65
2022/07/11 05:27:04;;;;;;;;;;;12.80;97.50;;;;;;4999387;28;19920;-65
2022/07/11 05:29:30;;;;;;;;;;;12.90;97.50;;;;;;4993936;28;19936;-65
2022/07/11 05:31:57;;;;;;;;;;;12.80;97.40;;;;;;5006651;28;20355;-65
2022/07/11 05:34:25;;;;;;;;;;;12.70;97.00;;;;;;5004040;28;19926;-65
2022/07/11 05:36:52;;;;;;;;;;;12.70;96.80;;;;;;4994760;28;19913;-66
2022/07/11 05:48:10;;;;;;;;;;;12.60;96.00;;;;;;4968491;28;19956;-65
2022/07/11 05:50:37;;;;;;;;;;;12.70;96.20;;;;;;4970737;28;20357;-66
2022/07/11 05:53:03;;;;;;;;;;;12.70;96.40;;;;;;4971028;28;19909;-66
2022/07/11 05:55:30;;;;;;;;;;;12.70;96.50;;;;;;4967062;28;20355;-66
2022/07/11 05:57:56;;;;;;;;;;;12.70;96.70;;;;;;4965241;28;19977;-65
2022/07/11 06:00:25;;;;;;;;;;;12.70;96.80;;;;;;4965593;28;19925;-65
2022/07/11 06:02:52;;;;;;;;;;;12.70;96.80;;;;;;4967769;28;19910;-66
2022/07/11 06:05:18;;;;;;;;;;;12.70;96.80;;;;;;4963976;28;20328;-66
2022/07/11 06:10:29;;;;;;;;;;;12.60;96.90;;;;;;4965713;28;19920;-66
2022/07/11 06:12:56;;;;;;;;;;;12.60;96.90;;;;;;4972606;28;20385;-66
2022/07/11 06:15:22;;;;;;;;;;;12.60;96.90;;;;;;4969328;28;19952;-65
2022/07/11 06:17:49;;;;;;;;;;;12.60;97.00;;;;;;4983375;28;19914;-66
2022/07/11 06:20:15;;;;;;;;;;;12.60;97.00;;;;;;4990373;28;19913;-66
2022/07/11 06:22:42;;;;;;;;;;;12.60;97.10;;;;;;4963339;28;19921;-66
2022/07/11 06:25:09;;;;;;;;;;;12.60;97.10;;;;;;4989562;28;19909;-66
2022/07/11 06:27:36;;;;;;;;;;;12.60;97.20;;;;;;4990668;28;20324;-66
2022/07/11 06:30:03;;;;;;;;;;;12.60;97.20;;;;;;4989346;28;19910;-67
2022/07/11 06:32:31;;;;;;;;;;;12.60;97.20;;;;;;4972994;28;19937;-66
2022/07/11 06:34:57;;;;;;;;;;;12.60;97.20;;;;;;4982914;28;19964;-66
2022/07/11 06:37:25;;;;;;;;;;;12.60;97.10;;;;;;4975401;28;19906;-66
2022/07/11 06:39:51;;;;;;;;;;;12.50;97.10;;;;;;4970464;28;19909;-66
2022/07/11 06:42:18;;;;;;;;;;;12.60;97.20;;;;;;4968816;28;20364;-65
2022/07/11 06:44:44;;;;;;;;;;;12.50;97.30;;;;;;4955841;28;19921;-65
2022/07/11 06:47:11;;;;;;;;;;;12.50;97.00;;;;;;4975125;28;19926;-66
2022/07/11 06:49:37;;;;;;;;;;;12.50;97.10;;;;;;4990165;28;19913;-65
2022/07/11 06:52:04;;;;;;;;;;;12.40;97.10;;;;;;4990139;28;19952;-66
2022/07/11 06:54:30;;;;;;;;;;;12.40;97.20;;;;;;4989823;28;19920;-64
2022/07/11 06:56:57;;;;;;;;;;;12.50;97.30;;;;;;4989947;28;19941;-65
2022/07/11 06:59:24;;;;;;;;;;;12.50;97.40;;;;;;4981696;28;20392;-65
2022/07/11 07:01:50;;;;;;;;;;;12.40;97.40;;;;;;4990009;28;20279;-66
2022/07/11 07:04:17;;;;;;;;;;;12.50;97.50;;;;;;4990168;28;19957;-65
2022/07/11 07:06:43;;;;;;;;;;;12.50;97.50;;;;;;4992155;28;19960;-65
2022/07/11 07:09:13;;;;;;;;;;;12.40;97.40;;;;;;4993979;28;19912;-65
2022/07/11 07:11:39;;;;;;;;;;;12.40;97.50;;;;;;4994578;28;19909;-65
2022/07/11 07:14:06;;;;;;;;;;;12.40;97.40;;;;;;4993524;28;19933;-66
2022/07/11 07:16:34;;;;;;;;;;;12.30;97.40;;;;;;4993942;28;19941;-66
2022/07/11 07:19:00;;;;;;;;;;;12.30;97.50;;;;;;4996215;28;19914;-66
2022/07/11 07:21:27;;;;;;;;;;;12.40;97.50;;;;;;5010208;28;19909;-65
2022/07/11 07:23:53;;;;;;;;;;;12.30;97.50;;;;;;5009669;28;20056;-66
2022/07/11 07:26:20;;;;;;;;;;;12.30;97.50;;;;;;5013193;28;19906;-65
2022/07/11 07:28:47;;;;;;;;;;;12.30;97.60;;;;;;5013433;28;19905;-65
2022/07/11 07:31:13;;;;;;;;;;;12.30;97.60;;;;;;5013209;28;20007;-69
2022/07/11 07:33:40;;;;;;;;;;;12.30;97.70;;;;;;5012850;28;19921;-69
2022/07/11 07:36:07;;;;;;;;;;;12.30;97.70;;;;;;5012168;28;19917;-68
2022/07/11 07:38:33;;;;;;;;;;;12.30;97.70;;;;;;5007460;28;19913;-68
2022/07/11 07:41:00;;;;;;;;;;;12.30;97.70;;;;;;5013321;28;19909;-68
2022/07/11 07:43:26;;;;;;;;;;;12.30;97.70;;;;;;4985860;28;20292;-68
2022/07/11 07:45:53;;;;;;;;;;;12.20;97.70;;;;;;5005471;28;20330;-68
2022/07/11 07:48:21;;;;;;;;;;;12.20;97.70;;;;;;4990029;28;20364;-68
2022/07/11 07:50:48;;;;;;;;;;;12.20;97.60;;;;;;5006980;28;20010;-68
2022/07/11 07:53:15;;;;;;;;;;;12.20;97.70;;;;;;5004485;28;19910;-68
2022/07/11 07:55:42;;;;;;;;;;;12.20;97.70;;;;;;5008162;28;19917;-68
2022/07/11 07:58:08;;;;;;;;;;;12.20;97.70;;;;;;4994263;28;20051;-68
2022/07/11 08:03:19;;;;;;;;;;;12.20;97.70;;;;;;5004737;28;19979;-69
2022/07/11 08:05:46;;;;;;;;;;;12.20;97.70;;;;;;5009892;28;19918;-68
2022/07/11 08:08:12;;;;;;;;;;;12.10;97.60;;;;;;5002375;28;20454;-68
2022/07/11 08:10:39;;;;;;;;;;;12.10;97.70;;;;;;4993374;28;20359;-68
2022/07/11 08:13:05;;;;;;;;;;;12.10;97.70;;;;;;4991737;28;19932;-69
2022/07/11 08:15:32;;;;;;;;;;;12.10;97.70;;;;;;4988806;28;20291;-68
2022/07/11 08:17:59;;;;;;;;;;;12.10;97.60;;;;;;4996437;28;20356;-69
2022/07/11 08:20:26;;;;;;;;;;;12.10;97.70;;;;;;5012095;28;20000;-68
2022/07/11 08:22:52;;;;;;;;;;;12.20;97.80;;;;;;5012301;28;20063;-68
2022/07/11 08:25:19;;;;;;;;;;;12.20;97.80;;;;;;5012436;28;19909;-68
2022/07/11 08:27:45;;;;;;;;;;;12.20;97.80;;;;;;5012261;28;19967;-69
2022/07/11 08:30:12;;;;;;;;;;;12.20;97.80;;;;;;5012357;28;19905;-68
2022/07/11 08:32:41;;;;;;;;;;;12.20;97.80;;;;;;4998202;28;19909;-68
2022/07/11 08:35:08;;;;;;;;;;;12.10;97.70;;;;;;4998030;28;19968;-69
2022/07/11 08:37:36;;;;;;;;;;;12.10;97.70;;;;;;4995563;28;19914;-68
2022/07/11 08:40:03;;;;;;;;;;;12.10;97.70;;;;;;4971937;28;20268;-69
2022/07/11 08:42:32;;;;;;;;;;;12.00;97.60;;;;;;4991772;28;19943;-69
2022/07/11 08:44:59;;;;;;;;;;;12.00;97.60;;;;;;4973039;28;20001;-69
2022/07/11 08:47:26;;;;;;;;;;;12.00;97.70;;;;;;5002000;28;19972;-68
2022/07/11 08:49:52;;;;;;;;;;;12.00;97.70;;;;;;4987765;28;19914;-69
2022/07/11 08:52:19;;;;;;;;;;;12.00;97.80;;;;;;4989595;28;19906;-69
2022/07/11 08:54:46;;;;;;;;;;;12.10;97.90;;;;;;4973832;28;19925;-76
2022/07/11 08:57:12;;;;;;;;;;;12.00;97.70;;;;;;4972939;28;19917;-67
2022/07/11 08:59:41;;;;;;;;;;;12.10;97.80;;;;;;4989903;28;19925;-68
2022/07/11 09:02:09;;;;;;;;;;;12.00;97.80;;;;;;4990321;28;20296;-68
2022/07/11 10:54:33;;;;;;;;;;;11.50;97.70;;;;;;4986015;28;20482;-64
2022/07/11 10:57:03;;;;;;;;;;;11.50;97.60;;;;;;4987818;28;19963;-63
2022/07/11 10:59:30;;;;;;;;;;;11.40;97.60;;;;;;4990164;28;20368;-64
2022/07/11 11:02:15;;;;;;;;;;;11.40;97.60;;;;;;4990652;28;20105;-64
2022/07/11 11:05:00;;;;;;;;;;;11.40;97.60;;;;;;4990551;28;19917;-64
2022/07/11 11:07:28;;;;;;;;;;;11.40;97.70;;;;;;4988613;28;19918;-64
2022/07/11 11:09:54;;;;;;;;;;;11.40;97.70;;;;;;4989818;28;19910;-64
2022/07/11 11:12:32;;;;;;;;;;;11.40;97.70;;;;;;4990095;28;19916;-64
2022/07/11 11:15:17;;;;;;;;;;;11.40;97.60;;;;;;4986018;28;19947;-64
2022/07/11 11:17:43;;;;;;;;;;;11.40;97.50;;;;;;4989447;28;19976;-64
2022/07/11 11:20:11;;;;;;;;;;;11.30;97.50;;;;;;5009561;28;19910;-65
2022/07/11 11:22:38;;;;;;;;;;;11.30;97.60;;;;;;4991863;28;19905;-65
2022/07/11 11:25:08;;;;;;;;;;;11.30;97.60;;;;;;5007144;28;20320;-65
2022/07/11 11:27:34;;;;;;;;;;;11.40;97.60;;;;;;4991290;28;19910;-66
2022/07/11 11:30:01;;;;;;;;;;;11.40;97.60;;;;;;4990358;28;19964;-64
2022/07/11 11:32:30;;;;;;;;;;;11.30;97.50;;;;;;4989732;28;20016;-64
2022/07/11 11:34:57;;;;;;;;;;;11.30;97.50;;;;;;4991667;28;19932;-65
2022/07/11 11:37:24;;;;;;;;;;;11.30;97.60;;;;;;4991312;28;20363;-65
2022/07/11 11:39:55;;;;;;;;;;;11.30;97.50;;;;;;4972101;28;20318;-64
2022/07/11 11:42:22;;;;;;;;;;;11.20;97.50;;;;;;4972260;28;19956;-66
2022/07/11 11:44:49;;;;;;;;;;;11.30;97.50;;;;;;4984863;28;20009;-66
2022/07/11 11:47:15;;;;;;;;;;;11.20;97.50;;;;;;4989854;28;20341;-65
2022/07/11 11:49:43;;;;;;;;;;;11.30;97.60;;;;;;4989652;28;19956;-66
2022/07/11 11:52:10;;;;;;;;;;;11.30;97.60;;;;;;4980837;28;19942;-65
2022/07/11 12:12:48;;;;;;;;;;;11.30;97.60;;;;;;4997426;28;19928;-68
2022/07/11 12:15:27;;;;;;;;;;;11.30;97.60;;;;;;4965472;28;19926;-67
2022/07/11 12:17:56;;;;;;;;;;;11.20;97.50;;;;;;5005769;28;19909;-67
2022/07/11 12:20:39;;;;;;;;;;;11.30;97.60;;;;;;4987649;28;19933;-68
2022/07/11 12:23:06;;;;;;;;;;;11.30;97.60;;;;;;4975024;28;19965;-67
2022/07/11 12:25:33;;;;;;;;;;;11.20;97.50;;;;;;4986264;28;19913;-68
2022/07/11 12:28:00;;;;;;;;;;;11.30;97.50;;;;;;4997001;28;20371;-68
2022/07/11 12:30:26;;;;;;;;;;;11.20;97.50;;;;;;4995317;28;19909;-68
2022/07/11 12:33:06;;;;;;;;;;;11.20;97.50;;;;;;4998212;28;20307;-68
2022/07/11 12:35:33;;;;;;;;;;;11.20;97.50;;;;;;4987419;28;20043;-68
2022/07/11 12:37:59;;;;;;;;;;;11.20;97.40;;;;;;4991509;28;19913;-66
2022/07/11 12:40:26;;;;;;;;;;;11.20;97.30;;;;;;4987143;28;19952;-68
2022/07/11 12:42:52;;;;;;;;;;;11.20;97.40;;;;;;4995197;28;19909;-68
2022/07/11 12:45:19;;;;;;;;;;;11.20;97.40;;;;;;4995070;28;19909;-68
2022/07/11 12:47:46;;;;;;;;;;;11.20;97.40;;;;;;4995258;28;19910;-65
2022/07/11 12:50:13;;;;;;;;;;;11.10;97.40;;;;;;4994212;28;19948;-65
2022/07/11 12:52:40;;;;;;;;;;;11.20;97.30;;;;;;4995249;28;20307;-66
2022/07/11 12:55:11;;;;;;;;;;;11.10;97.30;;;;;;4994579;28;19914;-65
2022/07/11 12:57:38;;;;;;;;;;;11.10;97.30;;;;;;4993655;28;19910;-65
2022/07/11 13:00:15;;;;;;;;;;;11.10;97.30;;;;;;4994361;28;19976;-65
2022/07/11 13:02:48;;;;;;;;;;;11.10;97.30;;;;;;4994753;28;20375;-65
2022/07/11 13:05:14;;;;;;;;;;;11.10;97.30;;;;;;4994421;28;19912;-66
2022/07/11 13:11:14;;;;;;;;;;;11.10;97.30;;;;;;4993146;28;19924;-65
2022/07/11 13:13:15;;;;;;;;;;;11.10;97.30;;;;;;4959890;28;20470;-66
2022/07/11 13:15:41;;;;;;;;;;;11.00;97.20;;;;;;4974489;28;19910;-65
2022/07/11 13:18:09;;;;;;;;;;;11.00;97.20;;;;;;4974456;28;20333;-66
2022/07/11 13:20:35;;;;;;;;;;;11.10;97.30;;;;;;4974711;28;19910;-65
2022/07/11 13:23:02;;;;;;;;;;;11.00;97.30;;;;;;4974759;28;19913;-65
2022/07/11 13:25:29;;;;;;;;;;;11.10;97.30;;;;;;4974846;28;19945;-65
2022/07/11 13:27:56;;;;;;;;;;;11.10;97.30;;;;;;4974957;28;19914;-65
2022/07/11 13:30:28;;;;;;;;;;;11.10;97.30;;;;;;4974992;28;20316;-65
2022/07/11 13:32:55;;;;;;;;;;;11.10;97.20;;;;;;4974559;28;19916;-65
2022/07/11 13:35:22;;;;;;;;;;;11.10;97.20;;;;;;4974983;28;19918;-65
2022/07/11 13:37:48;;;;;;;;;;;11.00;97.20;;;;;;4974871;28;19917;-65
2022/07/11 13:40:16;;;;;;;;;;;11.00;97.20;;;;;;4974564;28;19914;-65
2022/07/11 13:42:45;;;;;;;;;;;11.00;97.10;;;;;;4957386;28;19960;-65
2022/07/11 13:45:12;;;;;;;;;;;11.00;97.10;;;;;;4974189;28;20001;-65
2022/07/11 13:47:39;;;;;;;;;;;11.00;97.20;;;;;;4974302;28;19910;-64
2022/07/11 13:50:06;;;;;;;;;;;11.00;97.20;;;;;;4974024;28;19936;-65
2022/07/11 13:52:32;;;;;;;;;;;11.00;97.10;;;;;;4957142;28;19906;-65
2022/07/11 13:54:59;;;;;;;;;;;10.90;97.10;;;;;;4974039;28;20053;-64
2022/07/11 13:57:26;;;;;;;;;;;10.90;97.00;;;;;;4973965;28;19910;-64
2022/07/11 13:59:52;;;;;;;;;;;10.90;97.00;;;;;;4974224;28;19910;-64
2022/07/11 14:02:19;;;;;;;;;;;10.90;96.90;;;;;;4956889;28;20320;-65
2022/07/11 14:04:46;;;;;;;;;;;10.90;96.90;;;;;;4974311;28;19991;-65
2022/07/11 14:07:12;;;;;;;;;;;10.90;96.90;;;;;;4974313;28;20004;-65
2022/07/11 14:09:39;;;;;;;;;;;10.90;96.90;;;;;;4974281;28;19912;-65
2022/07/11 14:12:06;;;;;;;;;;;10.90;96.90;;;;;;4986090;28;19918;-65
2022/07/11 14:14:33;;;;;;;;;;;10.90;96.80;;;;;;4998982;28;19913;-65
2022/07/11 14:17:00;;;;;;;;;;;10.90;96.80;;;;;;5012808;28;19928;-65
2022/07/11 14:19:26;;;;;;;;;;;10.80;96.70;;;;;;5012975;28;20339;-65
2022/07/11 14:21:55;;;;;;;;;;;10.90;96.70;;;;;;5013184;28;19916;-65
2022/07/11 14:24:22;;;;;;;;;;;10.80;96.50;;;;;;5013227;28;19955;-65
2022/07/11 14:26:49;;;;;;;;;;;10.80;96.50;;;;;;5000014;28;19909;-65
2022/07/11 14:29:16;;;;;;;;;;;10.80;96.50;;;;;;5012692;28;19912;-65
2022/07/11 14:31:42;;;;;;;;;;;10.80;96.50;;;;;;4995492;28;19901;-65
2022/07/11 14:34:09;;;;;;;;;;;10.70;96.40;;;;;;5012930;28;20283;-65
2022/07/11 14:36:35;;;;;;;;;;;10.70;96.40;;;;;;4971681;28;19932;-65
2022/07/11 14:39:02;;;;;;;;;;;10.70;96.40;;;;;;5012660;28;19912;-65
2022/07/11 14:41:29;;;;;;;;;;;10.80;96.30;;;;;;5012741;28;19999;-65
2022/07/11 14:43:56;;;;;;;;;;;10.70;96.30;;;;;;4968215;28;19906;-64
2022/07/11 14:46:23;;;;;;;;;;;10.80;96.30;;;;;;5008987;28;19910;-66
2022/07/11 14:48:49;;;;;;;;;;;10.70;96.20;;;;;;5012735;28;19916;-65
2022/07/11 14:51:16;;;;;;;;;;;10.70;96.20;;;;;;4999860;28;19914;-65
2022/07/11 14:53:43;;;;;;;;;;;10.70;96.10;;;;;;5005761;28;19913;-65
2022/07/11 14:56:09;;;;;;;;;;;10.70;96.10;;;;;;5012545;28;19995;-66
2022/07/11 14:58:36;;;;;;;;;;;10.70;96.10;;;;;;5012330;28;19906;-65
2022/07/11 15:01:02;;;;;;;;;;;10.70;96.10;;;;;;5012624;28;19949;-65
2022/07/11 15:03:38;;;;;;;;;;;10.70;96.00;;;;;;5009189;28;19956;-65
2022/07/11 15:06:05;;;;;;;;;;;10.60;96.00;;;;;;5003201;28;19913;-65
2022/07/11 15:14:01;;;;;;;;;;;10.60;95.90;;;;;;4991805;28;19926;-65
2022/07/11 15:16:29;;;;;;;;;;;10.60;95.90;;;;;;5012400;28;19948;-65
2022/07/11 15:18:59;;;;;;;;;;;10.60;95.90;;;;;;5012097;28;20441;-65
2022/07/11 15:21:25;;;;;;;;;;;10.50;95.80;;;;;;5010547;28;19906;-65
2022/07/11 15:23:52;;;;;;;;;;;10.60;95.80;;;;;;5012138;28;19973;-65
2022/07/11 15:26:18;;;;;;;;;;;10.50;95.80;;;;;;5003463;28;20001;-65
2022/07/11 15:28:46;;;;;;;;;;;10.60;95.90;;;;;;5010116;28;19917;-65
2022/07/11 15:31:13;;;;;;;;;;;10.50;95.80;;;;;;5003093;28;19956;-65
2022/07/11 15:33:43;;;;;;;;;;;10.50;95.70;;;;;;5015817;28;20037;-65
2022/07/11 15:36:13;;;;;;;;;;;10.50;95.70;;;;;;4998412;28;19956;-65
2022/07/11 15:38:39;;;;;;;;;;;10.50;95.70;;;;;;5004682;28;20323;-64
2022/07/11 15:41:06;;;;;;;;;;;10.40;95.50;;;;;;5015955;28;19909;-65
2022/07/11 15:43:33;;;;;;;;;;;10.40;95.50;;;;;;5015686;28;20004;-64
2022/07/11 15:46:00;;;;;;;;;;;10.40;95.50;;;;;;5003594;28;19917;-64
2022/07/11 15:48:29;;;;;;;;;;;10.40;95.60;;;;;;4980057;28;19992;-65
2022/07/11 15:50:56;;;;;;;;;;;10.40;95.50;;;;;;5015748;28;19905;-65
2022/07/11 15:53:23;;;;;;;;;;;10.40;95.50;;;;;;5015960;28;20372;-65
2022/07/11 15:55:50;;;;;;;;;;;10.40;95.60;;;;;;5006420;28;19910;-65
2022/07/11 15:58:16;;;;;;;;;;;10.40;95.50;;;;;;5006728;28;19955;-65
2022/07/11 16:00:43;;;;;;;;;;;10.40;95.50;;;;;;5015266;28;19960;-65
2022/07/11 16:03:11;;;;;;;;;;;10.40;95.60;;;;;;5015529;28;20351;-65
2022/07/11 16:05:37;;;;;;;;;;;10.40;95.50;;;;;;5003663;28;19917;-65
2022/07/11 16:08:04;;;;;;;;;;;10.30;95.50;;;;;;4998307;28;19905;-65
2022/07/11 16:10:31;;;;;;;;;;;10.30;95.40;;;;;;5015597;28;19909;-65
2022/07/11 16:12:57;;;;;;;;;;;10.30;95.40;;;;;;5015183;28;20020;-65
2022/07/11 16:15:24;;;;;;;;;;;10.30;95.20;;;;;;4995343;28;20291;-65
2022/07/11 16:17:51;;;;;;;;;;;10.20;95.20;;;;;;4995162;28;19940;-65
2022/07/11 16:20:17;;;;;;;;;;;10.20;95.40;;;;;;4993709;28;20362;-65
2022/07/11 16:22:44;;;;;;;;;;;10.20;95.40;;;;;;4995510;28;19906;-65
2022/07/11 16:25:11;;;;;;;;;;;10.30;95.40;;;;;;4995714;28;20379;-65
2022/07/11 16:27:38;;;;;;;;;;;10.30;95.40;;;;;;4995541;28;19912;-65
2022/07/11 16:30:04;;;;;;;;;;;10.20;95.30;;;;;;4995378;28;19913;-65
2022/07/11 16:32:31;;;;;;;;;;;10.20;95.30;;;;;;4995631;28;19906;-65
2022/07/11 16:34:58;;;;;;;;;;;10.20;95.40;;;;;;4988623;28;19914;-65
2022/07/11 16:37:24;;;;;;;;;;;10.20;95.40;;;;;;4995159;28;19914;-66
2022/07/11 16:45:20;;;;;;;;;;;10.20;95.30;;;;;;4994587;28;20286;-65
2022/07/11 16:47:48;;;;;;;;;;;10.20;95.20;;;;;;4995169;28;19952;-65
2022/07/11 16:50:14;;;;;;;;;;;10.20;95.20;;;;;;4994890;28;19906;-65
2022/07/11 16:52:41;;;;;;;;;;;10.20;95.30;;;;;;4995319;28;19906;-65